Terminal Aerodrome Forecast
Issued by NWS

Home | Current Version | Previous Version | Text Only | Print | Product List | Glossary On
Versions: 1 2 3 4 5 6 7 8 9 10 11 12 13 14 15
000
FTUS42 TJSJ 261100
TAFJSJ
TAF
TJSJ 261130Z 2612/2712 08010KT P6SM VCSH FEW030 SCT070
     FM261300 07014G24KT P6SM VCSH SCT025
     FM262200 08008KT P6SM SCT030=

USA.gov is the U.S. government's official web portal to all federal, state and local government web resources and services.